Time;durP1;ratioP1;P1;durP2;ratioP2;P2;SDS_P1;SDS_P2;PMS_P1;PMS_P2;Temp;Humidity;BMP_temperature;BMP_pressure;BME280_temperature;BME280_humidity;BME280_pressure;Samples;Min_cycle;Max_cycle;Signal;HPM_P1;HPM_P2
2021/05/26 00:00:19;;;;;;;10.77;3.10;;;;;;;;;;13038529;22;20248;-79
2021/05/26 00:05:21;;;;;;;14.03;3.40;;;;;;;;;;13010313;22;20713;-80
2021/05/26 00:10:24;;;;;;;14.13;3.17;;;;;;;;;;13014163;22;20181;-78
2021/05/26 00:15:27;;;;;;;9.60;2.80;;;;;;;;;;13032094;22;20544;-78
2021/05/26 00:20:30;;;;;;;14.53;3.10;;;;;;;;;;13031810;22;20411;-79
2021/05/26 00:25:33;;;;;;;8.07;2.50;;;;;;;;;;13012489;22;20213;-79
2021/05/26 00:30:43;;;;;;;11.20;2.70;;;;;;;;;;13034409;22;20177;-79
2021/05/26 00:35:46;;;;;;;5.33;2.10;;;;;;;;;;13032340;22;20271;-79
2021/05/26 00:40:49;;;;;;;4.70;2.03;;;;;;;;;;13011870;22;20178;-80
2021/05/26 00:45:52;;;;;;;5.20;1.93;;;;;;;;;;13028492;22;21028;-80
2021/05/26 00:50:54;;;;;;;5.37;2.10;;;;;;;;;;13009670;22;20202;-79
2021/05/26 00:55:58;;;;;;;4.87;1.90;;;;;;;;;;13007666;22;20252;-80
2021/05/26 01:01:01;;;;;;;4.10;1.80;;;;;;;;;;13030670;22;20188;-80
2021/05/26 01:06:03;;;;;;;3.17;1.77;;;;;;;;;;13006870;22;20208;-79
2021/05/26 01:11:08;;;;;;;3.83;1.63;;;;;;;;;;13029241;22;20184;-80
2021/05/26 01:16:10;;;;;;;2.97;1.80;;;;;;;;;;13030281;22;20181;-79
2021/05/26 01:21:15;;;;;;;2.03;1.43;;;;;;;;;;13032372;22;20372;-79
2021/05/26 01:26:19;;;;;;;2.97;1.60;;;;;;;;;;13032307;22;20224;-78
2021/05/26 01:31:21;;;;;;;3.37;1.67;;;;;;;;;;13030667;22;20600;-81
2021/05/26 01:36:24;;;;;;;3.17;1.50;;;;;;;;;;13010458;22;20594;-80
2021/05/26 01:41:27;;;;;;;2.10;1.40;;;;;;;;;;13029110;22;20257;-81
2021/05/26 01:46:30;;;;;;;2.20;1.40;;;;;;;;;;13007584;22;20201;-79
2021/05/26 01:51:32;;;;;;;2.67;1.50;;;;;;;;;;13029636;22;20182;-79
2021/05/26 01:56:36;;;;;;;4.03;1.60;;;;;;;;;;13012512;22;20609;-80
2021/05/26 02:01:38;;;;;;;2.20;1.50;;;;;;;;;;13028050;22;20273;-80
2021/05/26 02:06:47;;;;;;;3.60;1.70;;;;;;;;;;13011244;22;20208;-78
2021/05/26 02:17:11;;;;;;;4.93;2.00;;;;;;;;;;13029869;22;20265;-78
2021/05/26 02:22:13;;;;;;;5.90;2.20;;;;;;;;;;13030834;22;20181;-78
2021/05/26 02:27:20;;;;;;;6.97;2.23;;;;;;;;;;13009598;22;20206;-79
2021/05/26 02:32:23;;;;;;;5.63;2.23;;;;;;;;;;13007542;22;20174;-80
2021/05/26 02:37:26;;;;;;;6.23;2.30;;;;;;;;;;13030576;22;20181;-81
2021/05/26 02:42:29;;;;;;;8.27;2.87;;;;;;;;;;13032492;22;20209;-80
2021/05/26 02:47:32;;;;;;;9.57;2.50;;;;;;;;;;13010770;22;20228;-80
2021/05/26 02:52:34;;;;;;;7.37;2.53;;;;;;;;;;13030208;22;20205;-79
2021/05/26 02:57:38;;;;;;;6.53;2.63;;;;;;;;;;13032016;22;20173;-79
2021/05/26 03:02:40;;;;;;;7.73;2.60;;;;;;;;;;13008065;22;20198;-80
2021/05/26 03:07:43;;;;;;;7.80;3.10;;;;;;;;;;13012097;22;20313;-80
2021/05/26 03:12:46;;;;;;;9.47;2.70;;;;;;;;;;13008719;22;20639;-81
2021/05/26 03:17:48;;;;;;;7.17;2.50;;;;;;;;;;13028659;22;20182;-80
2021/05/26 03:53:32;;;;;;;9.90;3.40;;;;;;;;;;13021671;22;20669;-81
2021/05/26 03:58:35;;;;;;;11.50;3.97;;;;;;;;;;13032451;22;20634;-80
2021/05/26 04:03:38;;;;;;;16.00;4.20;;;;;;;;;;13029310;22;20174;-80
2021/05/26 04:08:41;;;;;;;13.83;3.67;;;;;;;;;;13033847;22;20986;-81
2021/05/26 04:13:44;;;;;;;12.97;3.20;;;;;;;;;;13032992;22;20748;-82
2021/05/26 04:18:47;;;;;;;6.77;3.00;;;;;;;;;;13034524;22;20177;-82
2021/05/26 04:23:50;;;;;;;9.00;3.10;;;;;;;;;;13103253;22;20173;-78
2021/05/26 04:28:52;;;;;;;7.57;3.07;;;;;;;;;;13076848;22;20227;-77
2021/05/26 04:33:55;;;;;;;7.43;2.60;;;;;;;;;;13077930;22;20204;-81
2021/05/26 04:38:58;;;;;;;11.67;3.30;;;;;;;;;;13100430;22;20247;-79
2021/05/26 04:44:01;;;;;;;10.97;3.00;;;;;;;;;;13101880;22;20173;-81
2021/05/26 04:49:04;;;;;;;7.37;2.87;;;;;;;;;;13097208;22;21053;-83
2021/05/26 04:54:07;;;;;;;8.43;2.30;;;;;;;;;;13100589;22;20180;-78
2021/05/26 04:59:11;;;;;;;8.13;3.00;;;;;;;;;;13099415;22;20607;-86
2021/05/26 05:04:13;;;;;;;9.23;3.17;;;;;;;;;;13098622;22;20174;-80
2021/05/26 05:09:16;;;;;;;8.80;2.70;;;;;;;;;;13099239;22;20193;-78
2021/05/26 05:14:19;;;;;;;9.37;2.83;;;;;;;;;;13100805;22;20680;-79
2021/05/26 05:19:21;;;;;;;8.27;3.00;;;;;;;;;;13073329;22;20193;-79
2021/05/26 05:24:24;;;;;;;9.13;3.90;;;;;;;;;;13077996;22;20491;-82
2021/05/26 05:29:27;;;;;;;9.93;3.40;;;;;;;;;;13096750;22;20204;-81
2021/05/26 05:34:29;;;;;;;8.00;3.00;;;;;;;;;;13076786;22;20725;-80
2021/05/26 05:39:32;;;;;;;12.37;3.70;;;;;;;;;;13098226;22;20184;-80
2021/05/26 05:44:35;;;;;;;11.20;3.60;;;;;;;;;;13099891;22;20507;-80
2021/05/26 05:49:37;;;;;;;10.20;3.90;;;;;;;;;;13076584;22;20615;-80
2021/05/26 05:54:41;;;;;;;13.83;3.97;;;;;;;;;;13098151;22;20260;-81
2021/05/26 05:59:43;;;;;;;7.67;3.37;;;;;;;;;;13100098;22;20629;-80
2021/05/26 06:04:45;;;;;;;11.67;3.90;;;;;;;;;;13095222;22;20259;-82
2021/05/26 06:09:51;;;;;;;14.73;4.37;;;;;;;;;;13100886;22;20591;-82
2021/05/26 06:14:53;;;;;;;11.13;4.37;;;;;;;;;;13098158;22;20170;-81
2021/05/26 06:19:56;;;;;;;9.53;4.03;;;;;;;;;;13099387;22;20197;-81
2021/05/26 06:24:59;;;;;;;9.30;4.30;;;;;;;;;;13077648;22;20173;-82
2021/05/26 06:30:02;;;;;;;9.97;4.10;;;;;;;;;;13079553;22;20204;-82
2021/05/26 06:35:05;;;;;;;12.67;4.50;;;;;;;;;;13095962;22;20212;-82
2021/05/26 06:40:09;;;;;;;11.27;4.20;;;;;;;;;;13101427;22;20296;-82
2021/05/26 06:45:17;;;;;;;11.63;4.87;;;;;;;;;;13095942;22;20648;-80
2021/05/26 06:50:19;;;;;;;10.57;4.50;;;;;;;;;;13071115;22;20485;-81
2021/05/26 06:55:23;;;;;;;12.73;4.60;;;;;;;;;;13099150;22;20227;-81
2021/05/26 07:00:25;;;;;;;12.20;4.77;;;;;;;;;;13075491;22;20179;-80
2021/05/26 07:05:28;;;;;;;11.63;4.50;;;;;;;;;;13094648;22;20161;-80
2021/05/26 07:10:31;;;;;;;9.20;3.90;;;;;;;;;;13077239;22;20204;-78
2021/05/26 07:15:34;;;;;;;10.03;4.50;;;;;;;;;;13077099;22;20505;-80
2021/05/26 07:20:40;;;;;;;10.00;4.30;;;;;;;;;;13075508;22;20612;-80
2021/05/26 07:25:45;;;;;;;10.30;4.63;;;;;;;;;;13100742;22;20188;-79
2021/05/26 07:30:47;;;;;;;12.13;4.33;;;;;;;;;;13096168;22;20412;-79
2021/05/26 07:35:50;;;;;;;7.50;3.47;;;;;;;;;;13099253;22;20560;-78
2021/05/26 07:41:12;;;;;;;8.03;3.20;;;;;;;;;;13095558;22;20169;-79
2021/05/26 07:46:15;;;;;;;6.93;3.27;;;;;;;;;;13075140;22;20658;-78
2021/05/26 07:51:19;;;;;;;7.57;3.40;;;;;;;;;;13078728;22;20656;-78
2021/05/26 07:56:22;;;;;;;8.70;3.20;;;;;;;;;;13081215;22;20191;-77
2021/05/26 08:01:24;;;;;;;9.80;3.70;;;;;;;;;;13075526;22;20177;-80
2021/05/26 08:06:27;;;;;;;9.03;3.60;;;;;;;;;;13080367;22;20289;-80
2021/05/26 08:11:30;;;;;;;9.70;3.23;;;;;;;;;;13078851;22;20175;-79
2021/05/26 08:16:33;;;;;;;8.53;3.20;;;;;;;;;;13098754;22;20200;-80
2021/05/26 08:21:35;;;;;;;9.53;3.30;;;;;;;;;;13078220;22;20200;-80
2021/05/26 08:26:39;;;;;;;7.57;3.43;;;;;;;;;;13101094;22;20588;-80
2021/05/26 08:31:41;;;;;;;9.33;3.40;;;;;;;;;;13073373;22;20177;-78
2021/05/26 08:36:44;;;;;;;9.90;2.87;;;;;;;;;;13078705;22;20645;-78
2021/05/26 08:41:50;;;;;;;6.53;2.03;;;;;;;;;;13099430;22;20173;-80
2021/05/26 08:46:53;;;;;;;9.70;2.43;;;;;;;;;;13095765;22;20197;-80
2021/05/26 08:51:56;;;;;;;6.00;2.20;;;;;;;;;;13100788;22;20602;-78
2021/05/26 08:56:59;;;;;;;8.40;2.80;;;;;;;;;;13078752;22;21006;-79
2021/05/26 09:02:01;;;;;;;5.87;2.50;;;;;;;;;;13076219;22;20634;-79
2021/05/26 09:07:11;;;;;;;8.10;3.20;;;;;;;;;;13078096;22;20683;-80
2021/05/26 09:12:15;;;;;;;7.47;2.93;;;;;;;;;;13079095;22;20242;-79
2021/05/26 09:17:18;;;;;;;5.33;2.43;;;;;;;;;;13096114;22;20173;-79
2021/05/26 09:22:23;;;;;;;5.87;2.53;;;;;;;;;;13078642;22;20201;-78
2021/05/26 09:27:26;;;;;;;6.93;2.20;;;;;;;;;;13099352;22;20315;-79
2021/05/26 09:32:31;;;;;;;6.13;2.60;;;;;;;;;;13097193;22;20545;-80
2021/05/26 09:37:36;;;;;;;4.97;2.20;;;;;;;;;;13099025;22;20176;-81
2021/05/26 09:42:42;;;;;;;7.03;2.47;;;;;;;;;;13101386;22;20177;-80
2021/05/26 09:47:46;;;;;;;6.90;2.50;;;;;;;;;;13096127;22;20196;-78
2021/05/26 09:53:02;;;;;;;10.43;2.37;;;;;;;;;;13099548;22;20264;-82
2021/05/26 09:58:06;;;;;;;5.13;1.70;;;;;;;;;;13076479;22;20495;-79
2021/05/26 10:03:09;;;;;;;3.13;1.50;;;;;;;;;;13097333;22;20179;-79
2021/05/26 10:08:13;;;;;;;4.93;1.60;;;;;;;;;;13075644;22;20220;-78
2021/05/26 10:13:18;;;;;;;4.07;1.60;;;;;;;;;;13049024;22;20267;-78
2021/05/26 10:18:21;;;;;;;3.57;1.70;;;;;;;;;;13094341;22;20195;-79
2021/05/26 10:23:24;;;;;;;5.73;1.60;;;;;;;;;;13099510;22;20203;-78
2021/05/26 10:28:30;;;;;;;4.60;1.50;;;;;;;;;;13097019;22;20678;-80
2021/05/26 10:33:50;;;;;;;3.83;1.40;;;;;;;;;;13097405;22;20173;-80
2021/05/26 10:38:53;;;;;;;3.63;2.13;;;;;;;;;;13097357;22;20636;-79
2021/05/26 10:43:57;;;;;;;4.03;1.70;;;;;;;;;;13098033;22;20203;-79
2021/05/26 10:48:59;;;;;;;3.47;1.80;;;;;;;;;;13072164;22;20208;-80
2021/05/26 10:54:02;;;;;;;3.97;1.70;;;;;;;;;;13078928;22;20246;-79
2021/05/26 10:59:11;;;;;;;2.43;1.50;;;;;;;;;;13097006;22;20272;-79
2021/05/26 11:04:19;;;;;;;4.67;1.60;;;;;;;;;;13094704;22;20173;-80
2021/05/26 11:09:41;;;;;;;3.17;1.43;;;;;;;;;;13097805;22;20204;-79
2021/05/26 11:14:48;;;;;;;5.30;1.57;;;;;;;;;;13097915;22;20172;-80
2021/05/26 11:19:51;;;;;;;1.53;1.33;;;;;;;;;;13074147;22;20193;-78
2021/05/26 11:24:55;;;;;;;2.30;1.23;;;;;;;;;;13099849;22;20181;-79
2021/05/26 11:30:06;;;;;;;3.13;1.27;;;;;;;;;;13076300;22;20206;-80
2021/05/26 11:35:09;;;;;;;2.17;1.20;;;;;;;;;;13096145;22;20493;-80
2021/05/26 11:40:19;;;;;;;4.13;1.13;;;;;;;;;;13099599;22;20506;-78
2021/05/26 11:45:24;;;;;;;1.80;1.20;;;;;;;;;;13074615;22;20235;-81
2021/05/26 11:50:31;;;;;;;4.80;1.20;;;;;;;;;;13098752;22;20215;-81
2021/05/26 11:55:34;;;;;;;4.37;1.40;;;;;;;;;;13077707;22;20446;-80
2021/05/26 12:00:38;;;;;;;1.80;1.30;;;;;;;;;;13099311;22;20266;-80
2021/05/26 12:05:41;;;;;;;2.20;1.10;;;;;;;;;;13095140;22;20179;-82
2021/05/26 12:10:44;;;;;;;2.43;1.30;;;;;;;;;;13099588;22;20205;-78
2021/05/26 12:15:48;;;;;;;4.07;1.50;;;;;;;;;;13096526;22;20177;-81
2021/05/26 12:20:51;;;;;;;3.00;1.60;;;;;;;;;;13075023;22;20211;-80
2021/05/26 12:25:54;;;;;;;6.63;1.70;;;;;;;;;;13098564;22;20223;-79
2021/05/26 12:30:58;;;;;;;2.70;1.60;;;;;;;;;;13095568;22;20205;-81
2021/05/26 12:36:04;;;;;;;5.17;2.00;;;;;;;;;;13076690;22;20581;-79
2021/05/26 12:41:21;;;;;;;5.87;2.10;;;;;;;;;;13081749;22;20177;-80
2021/05/26 12:46:40;;;;;;;5.40;2.00;;;;;;;;;;13097182;22;20177;-79
2021/05/26 12:51:44;;;;;;;4.23;1.80;;;;;;;;;;13080014;22;20172;-80
2021/05/26 12:56:47;;;;;;;4.03;1.83;;;;;;;;;;13077087;22;20512;-80
2021/05/26 13:02:02;;;;;;;5.03;2.00;;;;;;;;;;13097375;22;20183;-80
2021/05/26 13:07:22;;;;;;;6.23;1.70;;;;;;;;;;13100041;22;20307;-81
2021/05/26 13:12:25;;;;;;;3.97;1.80;;;;;;;;;;13074772;22;20466;-82
2021/05/26 13:17:29;;;;;;;3.17;1.60;;;;;;;;;;13075258;22;20259;-80
2021/05/26 13:22:31;;;;;;;5.90;1.57;;;;;;;;;;13099858;22;20288;-81
2021/05/26 13:27:33;;;;;;;3.77;1.70;;;;;;;;;;13098697;22;20193;-79
2021/05/26 13:32:37;;;;;;;5.27;1.70;;;;;;;;;;13076966;22;20413;-80
2021/05/26 13:37:41;;;;;;;3.73;1.60;;;;;;;;;;13098884;22;20181;-80
2021/05/26 13:42:43;;;;;;;4.07;1.60;;;;;;;;;;13100823;22;20177;-79
2021/05/26 13:47:47;;;;;;;2.77;1.70;;;;;;;;;;13096439;22;20219;-79
2021/05/26 13:52:50;;;;;;;4.40;1.70;;;;;;;;;;13098789;22;20184;-80
2021/05/26 13:57:53;;;;;;;6.47;1.70;;;;;;;;;;13096622;22;20673;-79
2021/05/26 14:02:56;;;;;;;2.73;1.77;;;;;;;;;;13096203;22;20256;-78
2021/05/26 14:07:58;;;;;;;5.00;1.47;;;;;;;;;;13100343;22;20269;-81
2021/05/26 14:13:01;;;;;;;3.27;1.80;;;;;;;;;;13098438;22;20173;-80
2021/05/26 14:18:05;;;;;;;5.33;1.63;;;;;;;;;;13095837;22;20214;-80
2021/05/26 14:23:24;;;;;;;2.83;1.60;;;;;;;;;;13099095;22;20235;-81
2021/05/26 14:28:27;;;;;;;3.83;1.90;;;;;;;;;;13096408;22;20201;-80
2021/05/26 14:33:35;;;;;;;4.53;2.00;;;;;;;;;;13096899;22;20248;-79
2021/05/26 14:38:44;;;;;;;5.70;1.87;;;;;;;;;;13096861;22;20251;-81
2021/05/26 14:43:46;;;;;;;5.77;2.00;;;;;;;;;;13098760;22;20557;-79
2021/05/26 14:48:50;;;;;;;3.80;2.17;;;;;;;;;;13095687;22;20307;-78
2021/05/26 14:53:52;;;;;;;5.63;2.10;;;;;;;;;;13099173;22;20176;-80
2021/05/26 14:58:55;;;;;;;8.70;2.40;;;;;;;;;;13096618;22;20173;-80
2021/05/26 15:03:59;;;;;;;3.53;1.90;;;;;;;;;;13076098;22;20633;-79
2021/05/26 15:09:02;;;;;;;4.47;2.20;;;;;;;;;;13097207;22;20208;-79
2021/05/26 15:14:04;;;;;;;6.40;2.20;;;;;;;;;;13099148;22;20727;-80
2021/05/26 15:19:08;;;;;;;4.37;1.90;;;;;;;;;;13094165;22;20193;-81
2021/05/26 15:24:10;;;;;;;2.90;1.90;;;;;;;;;;13100276;22;20173;-80
2021/05/26 15:29:13;;;;;;;3.77;1.93;;;;;;;;;;13075156;22;20585;-81
2021/05/26 15:34:16;;;;;;;4.57;2.17;;;;;;;;;;13075157;22;20226;-81
2021/05/26 15:39:18;;;;;;;3.30;1.80;;;;;;;;;;13100466;22;20515;-81
2021/05/26 15:44:21;;;;;;;5.50;2.40;;;;;;;;;;13098863;22;20596;-81
2021/05/26 15:49:24;;;;;;;6.67;2.43;;;;;;;;;;13074702;22;20199;-80
2021/05/26 15:54:30;;;;;;;6.93;2.50;;;;;;;;;;13086990;22;20212;-81
2021/05/26 15:59:32;;;;;;;8.37;2.63;;;;;;;;;;13098727;22;20169;-81
2021/05/26 16:04:36;;;;;;;5.97;2.50;;;;;;;;;;13094987;22;20218;-80
2021/05/26 16:09:39;;;;;;;5.00;2.50;;;;;;;;;;13100610;22;21060;-80
2021/05/26 16:14:41;;;;;;;5.10;2.40;;;;;;;;;;13099478;22;20169;-80
2021/05/26 16:19:44;;;;;;;5.90;2.80;;;;;;;;;;13079108;22;20193;-80
2021/05/26 16:24:47;;;;;;;7.97;2.67;;;;;;;;;;13079511;22;20712;-82
2021/05/26 16:29:49;;;;;;;3.80;2.30;;;;;;;;;;13081100;22;20578;-81
2021/05/26 16:34:52;;;;;;;5.93;2.67;;;;;;;;;;13077343;22;20161;-83
2021/05/26 16:39:55;;;;;;;5.73;2.60;;;;;;;;;;13103372;22;20668;-82
2021/05/26 16:44:57;;;;;;;5.40;2.60;;;;;;;;;;13117845;22;20253;-80
2021/05/26 16:50:00;;;;;;;6.57;2.60;;;;;;;;;;13118130;22;20292;-82
2021/05/26 16:55:03;;;;;;;5.50;2.07;;;;;;;;;;13103480;22;20546;-80
2021/05/26 17:00:08;;;;;;;2.83;1.80;;;;;;;;;;13103530;22;20507;-79
2021/05/26 17:05:12;;;;;;;3.47;1.77;;;;;;;;;;13077325;22;20179;-80
2021/05/26 17:10:15;;;;;;;4.17;2.20;;;;;;;;;;13081395;22;20366;-79
2021/05/26 17:15:17;;;;;;;3.23;1.80;;;;;;;;;;13079324;22;20176;-79
2021/05/26 17:20:21;;;;;;;4.10;1.90;;;;;;;;;;13098532;22;20203;-79
2021/05/26 17:25:23;;;;;;;3.23;1.70;;;;;;;;;;13077205;22;20688;-79
2021/05/26 17:30:27;;;;;;;5.07;2.00;;;;;;;;;;13099786;22;20657;-79
2021/05/26 17:35:31;;;;;;;4.60;1.80;;;;;;;;;;13096015;22;20173;-79
2021/05/26 17:40:35;;;;;;;5.17;2.27;;;;;;;;;;13078413;22;20656;-80
2021/05/26 17:45:38;;;;;;;4.60;2.03;;;;;;;;;;13098048;22;20486;-80
2021/05/26 17:50:42;;;;;;;4.03;1.90;;;;;;;;;;13075825;22;20204;-77
2021/05/26 17:55:45;;;;;;;4.97;2.30;;;;;;;;;;13095931;22;20185;-78
2021/05/26 18:00:47;;;;;;;3.83;1.90;;;;;;;;;;13105062;22;20180;-80
2021/05/26 18:05:51;;;;;;;5.80;1.90;;;;;;;;;;13095646;22;20173;-77
2021/05/26 18:10:54;;;;;;;7.20;2.40;;;;;;;;;;13100202;22;20363;-79
2021/05/26 18:15:56;;;;;;;4.23;2.00;;;;;;;;;;13097392;22;20181;-82
2021/05/26 18:20:59;;;;;;;4.37;1.90;;;;;;;;;;13076434;22;20517;-83
2021/05/26 18:26:02;;;;;;;4.83;1.70;;;;;;;;;;13097492;22;20195;-79
2021/05/26 18:31:04;;;;;;;3.47;1.60;;;;;;;;;;13091785;22;20208;-86
2021/05/26 18:36:09;;;;;;;4.50;2.07;;;;;;;;;;13097957;22;20240;-80
2021/05/26 18:41:12;;;;;;;2.53;1.83;;;;;;;;;;13077182;22;20517;-84
2021/05/26 18:46:15;;;;;;;4.10;2.10;;;;;;;;;;13090857;22;20235;-79
2021/05/26 18:51:18;;;;;;;6.57;2.10;;;;;;;;;;13070418;22;20208;-79
2021/05/26 18:56:20;;;;;;;6.10;2.23;;;;;;;;;;13094815;22;20237;-78
2021/05/26 19:01:23;;;;;;;5.20;2.10;;;;;;;;;;13068575;22;20177;-83
2021/05/26 19:06:26;;;;;;;5.30;2.50;;;;;;;;;;13094866;22;20236;-79
2021/05/26 19:11:29;;;;;;;6.67;2.30;;;;;;;;;;13094845;22;20690;-79
2021/05/26 19:16:31;;;;;;;8.57;2.97;;;;;;;;;;13088862;22;20208;-78
2021/05/26 19:21:36;;;;;;;8.70;2.70;;;;;;;;;;13094745;22;20227;-80
2021/05/26 19:26:41;;;;;;;6.50;2.27;;;;;;;;;;13093714;22;20258;-78
2021/05/26 19:31:44;;;;;;;9.33;2.70;;;;;;;;;;13071032;22;20203;-79
2021/05/26 19:36:47;;;;;;;9.37;2.80;;;;;;;;;;13095488;22;20226;-78
2021/05/26 19:41:49;;;;;;;8.03;2.50;;;;;;;;;;13072637;22;20800;-78
2021/05/26 19:46:52;;;;;;;11.27;2.93;;;;;;;;;;13074895;22;20175;-78
2021/05/26 19:51:55;;;;;;;8.53;2.80;;;;;;;;;;13102207;22;20205;-79
2021/05/26 19:56:58;;;;;;;11.33;4.20;;;;;;;;;;13078413;22;20188;-78
2021/05/26 20:02:01;;;;;;;10.77;2.77;;;;;;;;;;13078423;22;20498;-79
2021/05/26 20:07:05;;;;;;;8.30;2.80;;;;;;;;;;13080171;22;20380;-79
2021/05/26 20:12:07;;;;;;;9.20;3.00;;;;;;;;;;13080497;22;20287;-81
2021/05/26 20:17:11;;;;;;;8.07;2.37;;;;;;;;;;13099172;22;20173;-81
2021/05/26 20:22:15;;;;;;;9.70;2.70;;;;;;;;;;13079039;22;20197;-80
2021/05/26 20:27:21;;;;;;;9.17;2.83;;;;;;;;;;13101860;22;20701;-79
2021/05/26 20:32:24;;;;;;;6.40;2.30;;;;;;;;;;13098068;22;20208;-79
2021/05/26 20:37:27;;;;;;;9.03;2.93;;;;;;;;;;13101967;22;20271;-80
2021/05/26 20:42:29;;;;;;;11.13;3.07;;;;;;;;;;13078149;22;20674;-79
2021/05/26 20:47:32;;;;;;;9.73;2.87;;;;;;;;;;13097662;22;20180;-79
2021/05/26 20:52:35;;;;;;;9.37;2.83;;;;;;;;;;13100214;22;20205;-79
2021/05/26 20:57:37;;;;;;;9.07;2.87;;;;;;;;;;13100329;22;20173;-79
2021/05/26 21:02:40;;;;;;;9.33;3.13;;;;;;;;;;13095474;22;20183;-79
2021/05/26 21:07:44;;;;;;;9.77;3.20;;;;;;;;;;13078071;22;20260;-79
2021/05/26 21:12:46;;;;;;;6.83;2.93;;;;;;;;;;13096358;22;20197;-79
2021/05/26 21:17:49;;;;;;;8.80;2.70;;;;;;;;;;13075473;22;20602;-78
2021/05/26 21:22:53;;;;;;;10.03;3.20;;;;;;;;;;13075785;22;20197;-79
2021/05/26 21:27:56;;;;;;;11.37;3.30;;;;;;;;;;13080069;22;20183;-79
2021/05/26 21:32:58;;;;;;;11.17;3.33;;;;;;;;;;13076769;22;20204;-78
2021/05/26 21:38:02;;;;;;;11.30;3.30;;;;;;;;;;13101569;22;20172;-79
2021/05/26 21:43:04;;;;;;;12.50;3.30;;;;;;;;;;13098713;22;20187;-79
2021/05/26 21:48:07;;;;;;;12.37;3.40;;;;;;;;;;13100512;22;20252;-78
2021/05/26 21:53:10;;;;;;;13.67;3.60;;;;;;;;;;13097725;22;20735;-79
2021/05/26 21:58:12;;;;;;;16.60;3.40;;;;;;;;;;13078665;22;20235;-79
2021/05/26 22:03:14;;;;;;;15.20;4.07;;;;;;;;;;13074279;22;20932;-80
2021/05/26 22:08:18;;;;;;;12.40;3.50;;;;;;;;;;13100049;22;20204;-79
2021/05/26 22:13:20;;;;;;;10.83;3.90;;;;;;;;;;13096247;22;20169;-79
2021/05/26 22:18:23;;;;;;;14.13;4.47;;;;;;;;;;13094103;22;20635;-80
2021/05/26 22:23:27;;;;;;;13.90;4.53;;;;;;;;;;13098404;22;20292;-79
2021/05/26 22:28:29;;;;;;;13.80;5.50;;;;;;;;;;13095079;22;20176;-80
2021/05/26 22:33:32;;;;;;;18.13;5.70;;;;;;;;;;13074502;22;20179;-79
2021/05/26 22:38:35;;;;;;;17.53;6.53;;;;;;;;;;13091511;22;20185;-80
2021/05/26 22:43:38;;;;;;;15.50;6.40;;;;;;;;;;13098919;22;20199;-80
2021/05/26 22:48:43;;;;;;;22.53;7.43;;;;;;;;;;13094421;22;20656;-80
2021/05/26 22:53:47;;;;;;;18.40;6.30;;;;;;;;;;13077789;22;20180;-79
2021/05/26 22:58:49;;;;;;;19.50;6.17;;;;;;;;;;13097724;22;20465;-80
2021/05/26 23:03:52;;;;;;;15.03;5.43;;;;;;;;;;13095981;22;20169;-80
2021/05/26 23:08:57;;;;;;;13.63;5.30;;;;;;;;;;13094344;22;20617;-80
2021/05/26 23:13:59;;;;;;;13.33;4.93;;;;;;;;;;13097084;22;20184;-80
2021/05/26 23:19:01;;;;;;;12.10;5.00;;;;;;;;;;13072400;22;20177;-80
2021/05/26 23:24:05;;;;;;;14.03;4.90;;;;;;;;;;13076078;22;20806;-80
2021/05/26 23:29:07;;;;;;;18.03;5.37;;;;;;;;;;13073675;22;20494;-80
2021/05/26 23:34:10;;;;;;;21.07;5.10;;;;;;;;;;13073560;22;20661;-79
2021/05/26 23:39:13;;;;;;;19.03;5.43;;;;;;;;;;13075679;22;20176;-80
2021/05/26 23:44:15;;;;;;;18.93;5.73;;;;;;;;;;13075471;22;20177;-79
2021/05/26 23:49:18;;;;;;;16.83;5.63;;;;;;;;;;13093415;22;20181;-80
2021/05/26 23:54:22;;;;;;;18.07;5.37;;;;;;;;;;13098463;22;20705;-80
2021/05/26 23:59:24;;;;;;;15.70;5.47;;;;;;;;;;13073486;22;20521;-80
